Latest Weather Observations for Nhill Aerodrome

IDV60801

Issued at 11:02 am EDT Saturday 7 March 2015 (issued every 30 minutes, with the page automatically refreshed every 10 minutes)

About weather observations | Map of weather stations | Latest weather observations for VIC | Other Formats
Station Details ID: 078015 Name: NHILL AERODROME Lat: -36.31 Lon: 141.65 Height: 138.9 m
Data from the previous 72 hours. | See also: Recent months at Nhill Aerodrome
Date/Time
EDT
Temp
°C
App
Temp
°C
Dew
Point
Rel
Hum
%
Delta-T
°C
Wind Press
QNH
hPa
Press
MSL
hPa
Rain
since 9 am
mm
Dir
 
Spd
km/h
Gust
km/h
Spd
kts
Gust
kts
07/11:00am 17.1 14.0 12.2 73 2.7 WSW 20 30 11 16 1014.8 1014.4 0.0
07/10:30am 16.7 13.5 12.0 74 2.6 WSW 20 26 11 14 1014.9 1014.5 0.0
07/10:00am 16.2 14.2 12.7 80 1.9 WSW 15 20 8 11 1014.6 1014.2 0.0
07/09:30am 15.5 12.8 13.0 85 1.4 W 19 22 10 12 1014.6 1014.2 0.0
07/09:00am 14.7 12.8 13.1 90 0.9 W 15 22 8 12 1014.6 1014.2 0.0
07/08:30am 14.3 12.1 13.3 94 0.6 WSW 17 20 9 11 1014.5 1014.1 0.0
07/08:00am 14.3 12.5 13.3 94 0.6 W 15 20 8 11 1014.2 1013.8 0.0
07/07:30am 14.2 12.6 12.9 92 0.7 WSW 13 17 7 9 1013.9 1013.5 0.0
07/07:00am 14.1 11.7 12.8 92 0.7 WSW 17 24 9 13 1013.4 1013.0 0.0
07/06:30am 14.0 11.8 13.2 95 0.4 WSW 17 20 9 11 1013.7 1013.3 0.0
07/06:00am 13.6 12.2 13.4 99 0.1 W 13 17 7 9 1013.2 1012.8 0.0
07/05:30am 13.6 11.9 13.6 100 0.0 WSW 15 20 8 11 1013.0 1012.7 0.0
07/05:00am 13.1 11.6 13.1 100 0.0 WSW 13 15 7 8 1013.0 1012.7 0.0
07/04:30am 13.1 12.0 13.1 100 0.0 WSW 11 13 6 7 1013.2 1012.8 0.0
07/04:00am 13.6 11.4 13.4 99 0.1 WSW 17 22 9 12 1013.4 1013.0 0.0
07/03:30am 13.7 11.6 13.7 100 0.0 WSW 17 20 9 11 1013.9 1013.5 0.0
07/03:00am 13.9 11.3 13.9 100 0.0 WSW 20 26 11 14 1014.0 1013.6 0.0
07/02:30am 13.9 11.3 13.9 100 0.0 SW 20 24 11 13 1014.1 1013.7 0.0
07/02:00am 14.5 11.3 13.0 91 0.8 SW 22 30 12 16 1014.3 1013.9 0.0
07/01:30am 14.6 11.6 12.1 85 1.4 WSW 19 26 10 14 1014.7 1014.3 0.0
07/01:00am 14.4 11.4 12.1 86 1.3 SW 19 22 10 12 1014.7 1014.3 0.0
07/12:30am 15.2 11.7 12.1 82 1.7 SW 22 30 12 16 1014.9 1014.5 0.0
07/12:00am 16.6 12.9 11.5 72 2.8 WSW 22 28 12 15 1014.7 1014.3 0.0
 
Date/Time
EDT
Temp
°C
App
Temp
°C
Dew
Point
Rel
Hum
%
Delta-T
°C
Wind Press
QNH
hPa
Press
MSL
hPa
Rain
since 9 am
mm
Dir
 
Spd
km/h
Gust
km/h
Spd
kts
Gust
kts
06/11:30pm 17.0 13.5 10.8 67 3.3 SW 20 26 11 14 1014.8 1014.4 0.0
06/11:00pm 17.3 13.0 10.9 66 3.5 WSW 24 33 13 18 1014.9 1014.5 0.0
06/10:30pm 17.7 14.2 11.0 65 3.6 WSW 20 28 11 15 1014.7 1014.3 0.0
06/10:00pm 18.1 13.4 10.7 62 4.0 WSW 26 32 14 17 1014.6 1014.2 0.0
06/09:30pm 18.2 14.3 10.8 62 4.0 SW 22 32 12 17 1014.4 1014.0 0.0
06/09:00pm 17.8 14.3 10.9 64 3.7 SW 20 26 11 14 1014.2 1013.8 0.0
06/08:30pm 18.3 14.8 10.9 62 4.0 SW 20 30 11 16 1014.1 1013.7 0.0
06/08:00pm 19.5 14.1 10.8 57 4.8 SW 30 35 16 19 1013.8 1013.4 0.0
06/07:30pm 19.8 15.1 10.8 56 4.9 WSW 26 35 14 19 1013.5 1013.1 0.0
06/07:00pm 20.3 14.6 11.0 55 5.1 SW 32 41 17 22 1013.6 1013.2 0.0
06/06:30pm 20.7 16.0 11.9 57 4.9 SW 28 35 15 19 1013.5 1013.1 0.0
06/06:00pm 21.3 16.0 11.3 53 5.6 WSW 30 37 16 20 1013.4 1013.0 0.0
06/05:30pm 20.6 16.0 11.2 55 5.2 SW 26 35 14 19 1013.5 1013.1 0.0
06/05:00pm 21.4 16.7 12.0 55 5.3 WSW 28 35 15 19 1013.5 1013.1 0.0
06/04:30pm 20.8 15.3 11.7 56 5.1 SW 32 39 17 21 1013.7 1013.3 0.0
06/04:00pm 20.1 14.3 11.6 58 4.7 SW 33 46 18 25 1014.1 1013.7 0.0
06/03:30pm 20.1 14.4 11.1 56 5.0 SW 32 46 17 25 1014.3 1013.9 0.0
06/03:00pm 21.6 16.1 10.7 50 6.0 SW 30 41 16 22 1014.3 1013.9 0.0
06/02:30pm 21.2 15.3 10.4 50 5.9 SW 32 43 17 23 1014.5 1014.1 0.0
06/02:00pm 20.7 14.7 10.2 51 5.7 SW 32 43 17 23 1014.7 1014.3 0.0
06/01:30pm 21.1 15.1 10.0 49 6.0 SW 32 43 17 23 1014.9 1014.5 0.0
06/01:00pm 21.2 15.5 9.8 48 6.2 SW 30 41 16 22 1015.2 1014.8 0.0
06/12:30pm 20.7 15.5 10.2 51 5.7 SW 28 39 15 21 1015.6 1015.2 0.0
06/12:00pm 19.7 13.5 9.9 53 5.3 SSW 33 43 18 23 1015.7 1015.3 0.0
06/11:30am 19.4 13.1 9.6 53 5.2 SSW 33 46 18 25 1015.9 1015.5 0.0
06/11:00am 18.0 11.5 9.1 56 4.7 SW 33 46 18 25 1015.9 1015.5 0.0
06/10:30am 16.6 10.1 9.1 61 3.9 SW 33 44 18 24 1015.9 1015.5 0.0
06/10:00am 16.2 9.4 9.2 63 3.6 SW 35 44 19 24 1015.7 1015.3 0.0
06/09:30am 15.7 9.2 9.1 65 3.4 SW 33 43 18 23 1015.7 1015.3 0.0
06/09:00am 15.2 8.4 9.1 67 3.1 SW 35 48 19 26 1015.5 1015.1 0.2
06/08:30am 14.7 9.2 9.1 69 2.9 WSW 28 37 15 20 1015.3 1014.9 0.2
06/08:00am 13.9 9.5 8.9 72 2.5 WSW 22 30 12 16 1015.2 1014.8 0.2
06/07:30am 13.7 7.8 9.0 73 2.4 WSW 30 43 16 23 1015.2 1014.8 0.2
06/07:00am 13.9 8.3 8.7 71 2.6 WSW 28 35 15 19 1015.2 1014.8 0.2
06/06:30am 13.4 7.8 8.7 73 2.4 WSW 28 39 15 21 1015.1 1014.7 0.2
06/06:00am 13.4 8.1 8.5 72 2.5 WSW 26 37 14 20 1015.2 1014.8 0.2
06/05:30am 13.3 8.4 8.4 72 2.5 WSW 24 35 13 19 1015.5 1015.1 0.2
06/05:00am 12.4 7.7 7.9 74 2.2 WSW 22 32 12 17 1015.8 1015.4 0.2
06/04:30am 11.7 6.9 7.4 75 2.1 WSW 22 28 12 15 1015.9 1015.5 0.2
06/04:00am 11.9 7.1 7.2 73 2.3 WSW 22 28 12 15 1016.1 1015.7 0.2
06/03:30am 11.7 6.8 7.0 73 2.3 WSW 22 28 12 15 1016.1 1015.7 0.2
06/03:00am 11.7 6.8 6.8 72 2.3 WSW 22 30 12 16 1016.4 1016.0 0.2
06/02:30am 11.9 7.3 6.6 70 2.5 W 20 26 11 14 1017.0 1016.6 0.2
06/02:00am 11.9 7.2 6.0 67 2.8 W 20 30 11 16 1017.4 1017.0 0.2
06/01:30am 11.9 7.3 5.5 65 3.0 W 19 24 10 13 1017.7 1017.3 0.2
06/01:00am 12.0 7.3 5.0 62 3.2 W 19 24 10 13 1017.9 1017.5 0.2
06/12:30am 12.3 7.4 5.0 61 3.4 WSW 20 28 11 15 1018.3 1017.9 0.2
06/12:00am 12.3 7.3 4.8 60 3.5 W 20 24 11 13 1018.6 1018.3 0.2
 
Date/Time
EDT
Temp
°C
App
Temp
°C
Dew
Point
Rel
Hum
%
Delta-T
°C
Wind Press
QNH
hPa
Press
MSL
hPa
Rain
since 9 am
mm
Dir
 
Spd
km/h
Gust
km/h
Spd
kts
Gust
kts
05/11:30pm 13.1 8.3 4.8 57 3.9 WSW 19 24 10 13 1018.9 1018.6 0.2
05/11:00pm 13.4 8.5 5.1 57 3.9 WSW 20 28 11 15 1019.2 1018.9 0.2
05/10:30pm 13.8 7.7 4.9 55 4.2 SW 26 37 14 20 1019.3 1019.0 0.2
05/10:00pm 14.5 8.1 5.0 53 4.5 SW 28 39 15 21 1019.4 1019.1 0.2
05/09:30pm 14.9 7.6 4.6 50 4.8 SW 32 41 17 22 1018.8 1018.5 0.2
05/09:00pm 15.7 8.4 4.4 47 5.3 SW 32 44 17 24 1018.5 1018.2 0.2
05/08:30pm 16.6 9.6 4.0 43 5.9 SW 30 41 16 22 1018.1 1017.7 0.2
05/08:00pm 17.5 10.1 4.1 41 6.3 WSW 32 41 17 22 1018.0 1017.6 0.2
05/07:30pm 18.9 11.3 3.1 35 7.4 WSW 32 39 17 21 1017.9 1017.5 0.2
05/07:00pm 20.4 12.7 3.2 32 8.2 WSW 33 46 18 25 1017.8 1017.4 0.2
05/06:30pm 21.1 13.3 2.9 30 8.6 SW 33 46 18 25 1017.6 1017.2 0.2
05/06:00pm 21.6 13.8 2.8 29 8.9 SW 33 44 18 24 1017.3 1016.9 0.2
05/05:42pm 22.4 15.3 1.4 25 9.8 SW 28 46 15 25 1017.2 1016.8 0.2
05/05:30pm 22.4 14.6 2.0 26 9.6 SW 32 46 17 25 1017.2 1016.8 0.2
05/05:00pm 22.9 16.1 2.9 27 9.6 WSW 28 39 15 21 1017.2 1016.8 0.2
05/04:55pm 21.8 14.9 2.5 28 9.1 SW 28 46 15 25 1017.3 1016.9 0.2
05/04:30pm 22.1 15.1 1.7 26 9.5 WSW 28 37 15 20 1017.4 1017.0 0.2
05/04:00pm 22.3 15.3 1.9 26 9.6 SW 28 43 15 23 1017.9 1017.5 0.2
05/03:30pm 21.1 13.7 1.9 28 8.9 SW 30 43 16 23 1018.5 1018.2 0.2
05/03:00pm 21.0 14.8 2.3 29 8.8 SW 24 39 13 21 1018.7 1018.4 0.2
05/02:30pm 20.6 13.7 2.4 30 8.5 SW 28 43 15 23 1019.0 1018.7 0.2
05/02:00pm 20.0 13.7 1.4 29 8.5 SW 24 37 13 20 1019.4 1019.1 0.2
05/01:30pm 19.0 12.2 0.6 29 8.2 SW 26 35 14 19 1019.9 1019.6 0.2
05/01:00pm 19.1 12.4 1.6 31 8.0 SW 26 37 14 20 1020.2 1019.9 0.2
05/12:30pm 17.7 11.2 2.5 36 7.0 SW 26 37 14 20 1020.8 1020.4 0.2
05/12:00pm 16.8 10.0 3.1 40 6.3 SW 28 37 15 20 1021.1 1020.7 0.0
05/11:30am 16.5 9.0 3.6 42 6.0 SSW 32 46 17 25 1021.4 1021.0 0.0
05/11:00am 16.1 8.6 3.2 42 5.9 S 32 43 17 23 1021.3 1020.9 0.0
05/10:30am 15.6 7.2 3.7 45 5.5 SSW 37 50 20 27 1021.1 1020.7 0.0
05/10:01am 15.0 7.6 4.1 48 5.1 SSW 32 50 17 27 1020.7 1020.3 0.0
05/10:00am 15.1 7.8 4.5 49 5.0 SSW 32 41 17 22 1020.7 1020.3 0.0
05/09:30am 14.0 7.1 4.6 53 4.4 SSW 30 39 16 21 1020.2 1019.9 0.0
05/09:00am 12.9 7.5 4.3 56 3.9 SW 22 30 12 16 1020.1 1019.8 0.0
05/08:30am 11.5 6.3 5.4 66 2.8 SW 22 28 12 15 1019.7 1019.4 0.0
05/08:00am 10.0 5.5 6.2 77 1.8 SW 19 22 10 12 1019.3 1019.0 0.0
05/07:30am 9.8 5.2 5.6 75 1.9 SSW 19 20 10 11 1018.7 1018.4 0.0
05/07:00am 10.2 5.4 5.8 74 2.0 SSW 20 22 11 12 1018.0 1017.6 0.0
05/06:30am 10.7 6.1 6.5 75 2.0 SSW 20 24 11 13 1017.6 1017.2 0.0
05/06:00am 11.4 6.1 6.9 74 2.2 SSW 24 32 13 17 1017.4 1017.0 0.0
05/05:30am 12.2 5.5 7.3 72 2.4 SSW 32 41 17 22 1017.4 1017.0 0.0
05/05:00am 12.5 6.0 8.2 75 2.1 SSW 32 43 17 23 1016.8 1016.4 0.0
05/04:30am 12.6 7.7 9.8 83 1.4 SW 26 33 14 18 1016.4 1016.0 0.0
05/04:00am 13.2 7.2 10.0 81 1.7 SW 32 41 17 22 1015.9 1015.5 0.0
05/03:30am 13.7 7.2 10.3 80 1.8 SW 35 46 19 25 1015.6 1015.2 0.0
05/03:00am 14.1 6.8 10.1 77 2.1 SW 39 57 21 31 1015.5 1015.1 0.0
05/02:30am 14.5 8.4 11.6 83 1.6 SW 35 48 19 26 1015.5 1015.1 0.0
05/02:00am 15.1 9.0 11.9 81 1.7 SW 35 48 19 26 1015.2 1014.8 0.0
05/01:31am 15.0 10.1 14.4 96 0.3 WSW 33 52 18 28 1015.3 1014.9 0.0
05/01:30am 15.0 10.2 14.7 98 0.2 WSW 33 46 18 25 1015.3 1014.9 0.0
05/01:15am 15.4 10.6 13.9 91 0.9 W 32 50 17 27 1014.8 1014.4 0.0
05/01:00am 16.3 10.9 12.7 79 2.0 W 33 41 18 22 1014.6 1014.2 0.0
05/12:30am 16.6 11.0 12.2 75 2.4 W 33 43 18 23 1014.8 1014.4 0.0
05/12:00am 16.9 10.9 12.0 73 2.7 WSW 35 46 19 25 1014.7 1014.3 0.0
 
Date/Time
EDT
Temp
°C
App
Temp
°C
Dew
Point
Rel
Hum
%
Delta-T
°C
Wind Press
QNH
hPa
Press
MSL
hPa
Rain
since 9 am
mm
Dir
 
Spd
km/h
Gust
km/h
Spd
kts
Gust
kts
04/11:30pm 16.7 11.6 12.0 74 2.6 W 30 41 16 22 1014.9 1014.5 0.0
04/11:00pm 17.0 12.2 11.7 71 2.9 WSW 28 37 15 20 1015.0 1014.6 0.0
04/10:30pm 17.4 11.1 11.2 67 3.4 WSW 35 44 19 24 1015.1 1014.7 0.0
04/10:00pm 17.9 11.8 10.3 61 4.1 WSW 33 48 18 26 1014.9 1014.5 0.0
04/09:30pm 18.1 10.7 10.0 59 4.3 WSW 39 50 21 27 1014.7 1014.3 0.0
04/09:00pm 18.3 11.4 10.2 59 4.3 WSW 37 50 20 27 1014.4 1014.0 0.0
04/08:30pm 18.7 12.1 10.0 57 4.7 W 35 46 19 25 1013.9 1013.5 0.0
04/08:00pm 18.9 11.9 9.9 56 4.8 W 37 52 20 28 1014.0 1013.6 0.0
04/07:30pm 19.5 12.0 9.4 52 5.4 WSW 39 50 21 27 1014.0 1013.6 0.0
04/07:00pm 20.2 13.1 9.5 50 5.7 W 37 50 20 27 1013.9 1013.5 0.0
04/06:30pm 22.1 15.5 9.9 46 6.7 W 35 48 19 26 1013.6 1013.2 0.0
04/06:00pm 21.8 14.7 9.7 46 6.6 W 37 52 20 28 1013.5 1013.1 0.0
04/05:30pm 22.9 15.8 9.7 43 7.2 W 37 46 20 25 1013.6 1013.2 0.0
04/05:00pm 23.1 16.6 8.8 40 7.7 W 33 50 18 27 1013.7 1013.3 0.0
04/04:30pm 22.8 16.4 9.2 42 7.4 W 33 48 18 26 1014.0 1013.6 0.0
04/04:00pm 22.8 16.6 9.2 42 7.4 WSW 32 50 17 27 1014.2 1013.8 0.0
04/03:58pm 22.4 16.1 8.9 42 7.2 WSW 32 50 17 27 1014.3 1013.9 0.0
04/03:30pm 22.7 16.7 8.8 41 7.5 W 30 44 16 24 1014.5 1014.1 0.0
04/03:13pm 23.1 17.0 8.4 39 7.8 WSW 30 48 16 26 1014.6 1014.2 0.0
04/03:00pm 23.4 17.0 8.7 39 7.9 WSW 32 46 17 25 1014.6 1014.2 0.0
04/02:30pm 22.5 16.9 8.6 41 7.4 W 28 39 15 21 1015.0 1014.6 0.0
04/02:00pm 22.4 17.1 8.5 41 7.4 W 26 35 14 19 1015.5 1015.1 0.0
04/01:30pm 21.3 15.7 8.6 44 6.7 WSW 28 43 15 23 1016.0 1015.6 0.0
04/01:00pm 22.0 16.6 8.2 41 7.3 WSW 26 35 14 19 1016.5 1016.1 0.0
04/12:30pm 20.1 15.5 8.1 46 6.3 W 22 35 12 19 1016.7 1016.3 0.0
04/12:00pm 19.6 15.0 8.0 47 6.0 W 22 41 12 22 1017.0 1016.6 0.0
04/11:30am 19.0 14.1 8.4 50 5.5 WSW 24 35 13 19 1017.3 1016.9 0.0

Other Formats:

Comma delimited format used in spreadsheet applications
http://www.bom.gov.au/fwo/IDV60801/IDV60801.94827.axf

JavaScript Object Notation format (JSON) in row-major order
http://www.bom.gov.au/fwo/IDV60801/IDV60801.94827.json